Time;durP1;ratioP1;P1;durP2;ratioP2;P2;SDS_P1;SDS_P2;PMS_P1;PMS_P2;Temp;Humidity;BMP_temperature;BMP_pressure;BME280_temperature;BME280_humidity;BME280_pressure;Samples;Min_cycle;Max_cycle;Signal;HPM_P1;HPM_P2
2021/09/02 00:00:45;;;;;;;4.28;1.80;;;23.30;47.20;;;;;;4819637;29;20141;-70
2021/09/02 00:03:12;;;;;;;2.90;1.45;;;23.30;47.20;;;;;;4811619;29;20119;-70
2021/09/02 00:05:40;;;;;;;2.13;1.92;;;23.40;47.30;;;;;;4819138;29;20054;-70
2021/09/02 00:08:07;;;;;;;2.38;1.80;;;23.30;47.70;;;;;;4819247;29;20093;-70
2021/09/02 00:10:35;;;;;;;1.65;1.55;;;23.30;47.20;;;;;;4819048;29;20112;-69
2021/09/02 00:13:04;;;;;;;2.40;1.60;;;23.30;47.70;;;;;;4811955;29;20085;-69
2021/09/02 00:15:31;;;;;;;1.40;1.30;;;23.30;47.20;;;;;;4818921;29;20394;-70
2021/09/02 00:18:00;;;;;;;1.60;1.50;;;23.40;47.20;;;;;;4818581;29;20068;-69
2021/09/02 00:20:28;;;;;;;2.35;1.60;;;23.30;47.20;;;;;;4818977;29;20065;-70
2021/09/02 00:22:56;;;;;;;1.90;1.80;;;23.30;47.20;;;;;;4812194;29;20420;-69
2021/09/02 00:25:24;;;;;;;1.70;1.60;;;23.30;47.20;;;;;;4819065;29;20129;-70
2021/09/02 00:27:51;;;;;;;1.65;1.55;;;23.30;47.20;;;;;;4819006;29;20127;-70
2021/09/02 00:30:18;;;;;;;1.73;1.45;;;23.30;47.30;;;;;;4818603;29;20141;-70
2021/09/02 00:32:46;;;;;;;1.42;1.33;;;23.30;47.80;;;;;;4811676;29;20061;-69
2021/09/02 00:35:13;;;;;;;1.42;1.30;;;23.30;47.30;;;;;;4818374;29;20134;-70
2021/09/02 00:37:40;;;;;;;1.92;1.65;;;23.30;47.30;;;;;;4819229;29;20089;-70
2021/09/02 00:40:08;;;;;;;1.77;1.67;;;23.30;47.40;;;;;;4818774;29;20520;-70
2021/09/02 00:42:35;;;;;;;2.47;1.65;;;23.30;47.30;;;;;;4810912;29;20056;-69
2021/09/02 00:45:03;;;;;;;1.73;1.60;;;23.30;47.40;;;;;;4818779;29;20480;-70
2021/09/02 00:47:31;;;;;;;1.45;1.35;;;23.30;47.40;;;;;;4818814;29;20061;-70
2021/09/02 00:49:58;;;;;;;2.35;1.35;;;23.30;47.50;;;;;;4818401;29;20141;-70
2021/09/02 00:52:28;;;;;;;3.83;1.42;;;23.30;47.40;;;;;;4813945;29;20072;-68
2021/09/02 00:54:59;;;;;;;1.85;1.60;;;23.30;47.50;;;;;;4817566;29;20157;-70
2021/09/02 00:57:29;;;;;;;1.75;1.63;;;23.30;47.50;;;;;;4819075;29;20081;-70
2021/09/02 01:00:04;;;;;;;1.67;1.58;;;23.30;47.50;;;;;;4818460;29;20046;-70
2021/09/02 01:02:31;;;;;;;2.17;1.60;;;23.30;47.50;;;;;;4813060;29;20066;-69
2021/09/02 01:05:03;;;;;;;1.80;1.70;;;23.20;47.50;;;;;;4815930;29;20053;-70
2021/09/02 01:07:32;;;;;;;1.75;1.60;;;23.20;47.50;;;;;;4818672;29;20580;-70
2021/09/02 01:10:01;;;;;;;1.75;1.50;;;23.20;47.50;;;;;;4818632;29;20137;-70
2021/09/02 01:12:41;;;;;;;1.42;1.20;;;23.20;47.50;;;;;;4813532;29;20055;-70
2021/09/02 01:15:19;;;;;;;;;;;23.20;47.50;;;;;;4800762;29;20130;-70
2021/09/02 01:17:48;;;;;;;1.50;1.40;;;23.20;47.50;;;;;;4800163;29;19925;-70
2021/09/02 01:20:18;;;;;;;1.65;1.50;;;23.20;47.50;;;;;;4800442;29;20133;-70
2021/09/02 01:22:46;;;;;;;1.77;1.48;;;23.30;47.50;;;;;;4806291;29;20058;-69
2021/09/02 01:25:16;;;;;;;2.45;1.77;;;23.30;47.50;;;;;;4817929;29;20061;-68
2021/09/02 01:27:49;;;;;;;1.20;1.10;;;23.20;47.40;;;;;;4818412;29;20129;-70
2021/09/02 01:30:17;;;;;;;2.03;1.60;;;23.30;47.50;;;;;;4818022;29;20050;-70
2021/09/02 01:32:48;;;;;;;2.33;1.73;;;23.20;47.40;;;;;;4810896;29;20061;-69
2021/09/02 01:35:16;;;;;;;1.15;1.15;;;23.20;47.40;;;;;;4817785;29;20556;-70
2021/09/02 01:37:47;;;;;;;1.50;1.40;;;23.20;47.40;;;;;;4818327;29;20587;-70
2021/09/02 01:40:22;;;;;;;1.92;1.40;;;23.30;47.50;;;;;;4817835;29;20054;-70
2021/09/02 01:42:50;;;;;;;2.05;1.55;;;23.20;47.50;;;;;;4814252;29;20540;-69
2021/09/02 01:45:18;;;;;;;4.43;2.00;;;23.20;47.50;;;;;;4821059;29;20538;-70
2021/09/02 01:47:46;;;;;;;1.10;1.00;;;23.20;47.50;;;;;;4821404;29;20406;-69
2021/09/02 01:50:16;;;;;;;1.48;1.35;;;23.20;47.50;;;;;;4821406;29;20079;-70
2021/09/02 01:52:45;;;;;;;1.40;1.30;;;23.20;47.60;;;;;;4813472;29;20089;-69
2021/09/02 01:55:13;;;;;;;1.23;1.13;;;23.20;47.60;;;;;;4820797;29;20185;-70
2021/09/02 01:57:41;;;;;;;1.30;1.20;;;23.20;47.60;;;;;;4821181;29;20054;-70
2021/09/02 02:00:10;;;;;;;2.53;1.77;;;23.20;47.60;;;;;;4820981;29;20053;-70
2021/09/02 02:02:39;;;;;;;1.63;1.30;;;23.20;47.60;;;;;;4813352;29;20054;-69
2021/09/02 02:05:07;;;;;;;1.58;1.48;;;23.20;47.60;;;;;;4819623;29;20134;-70
2021/09/02 02:07:36;;;;;;;2.55;1.75;;;23.20;47.60;;;;;;4821483;29;20133;-70
2021/09/02 02:10:06;;;;;;;1.13;1.02;;;23.20;47.70;;;;;;4821128;29;20050;-70
2021/09/02 02:12:34;;;;;;;1.40;1.30;;;23.20;47.70;;;;;;4813586;29;20054;-67
2021/09/02 02:15:01;;;;;;;1.80;1.20;;;23.20;47.70;;;;;;4820562;29;20154;-70
2021/09/02 02:17:29;;;;;;;1.60;1.30;;;23.20;47.70;;;;;;4820866;29;20128;-70
2021/09/02 02:19:56;;;;;;;2.00;1.30;;;23.20;47.70;;;;;;4820723;29;20129;-70
2021/09/02 02:22:23;;;;;;;1.67;1.58;;;23.20;47.70;;;;;;4814928;29;20141;-70
2021/09/02 02:24:50;;;;;;;1.70;1.60;;;23.10;47.70;;;;;;4819626;29;20054;-70
2021/09/02 02:27:17;;;;;;;1.40;1.25;;;23.10;47.70;;;;;;4820824;29;20106;-70
2021/09/02 02:29:45;;;;;;;1.55;1.45;;;23.10;47.70;;;;;;4820128;29;20137;-70
2021/09/02 02:32:12;;;;;;;1.42;1.33;;;23.10;47.70;;;;;;4816383;29;20054;-69
2021/09/02 02:34:40;;;;;;;2.08;1.20;;;23.10;47.80;;;;;;4817112;29;20512;-70
2021/09/02 02:37:07;;;;;;;1.45;1.35;;;23.10;47.80;;;;;;4819374;29;20058;-70
2021/09/02 02:39:38;;;;;;;1.73;1.63;;;23.10;47.80;;;;;;4820371;29;20050;-70
2021/09/02 02:42:09;;;;;;;3.83;1.52;;;23.10;47.80;;;;;;4815765;29;20202;-69
2021/09/02 02:44:36;;;;;;;1.10;1.00;;;23.10;47.80;;;;;;4817130;29;20054;-70
2021/09/02 02:47:05;;;;;;;1.42;1.33;;;23.10;47.80;;;;;;4820344;29;20050;-70
2021/09/02 02:49:33;;;;;;;1.40;1.30;;;23.10;47.80;;;;;;4819278;29;20596;-70
2021/09/02 02:52:00;;;;;;;2.17;1.65;;;23.10;47.80;;;;;;4813668;29;20054;-69
2021/09/02 02:54:27;;;;;;;1.70;1.60;;;23.10;47.80;;;;;;4818120;29;20057;-70
2021/09/02 02:56:55;;;;;;;1.63;1.52;;;23.10;47.70;;;;;;4820113;29;20137;-70
2021/09/02 02:59:22;;;;;;;1.70;1.60;;;23.10;47.70;;;;;;4820354;29;20137;-70
2021/09/02 03:01:49;;;;;;;1.30;1.23;;;23.10;47.70;;;;;;4815940;29;20141;-69
2021/09/02 03:04:16;;;;;;;1.20;1.20;;;23.20;47.80;;;;;;4801317;29;20196;-70
2021/09/02 03:06:43;;;;;;;1.67;1.58;;;23.10;47.80;;;;;;4818624;29;20126;-70
2021/09/02 03:09:10;;;;;;;1.38;1.20;;;23.10;47.80;;;;;;4820354;29;20125;-70
2021/09/02 03:11:38;;;;;;;1.30;1.20;;;23.10;47.80;;;;;;4816717;29;20481;-70
2021/09/02 03:14:05;;;;;;;2.65;1.80;;;23.10;47.80;;;;;;4815154;29;20473;-70
2021/09/02 03:16:32;;;;;;;2.42;1.30;;;23.10;47.80;;;;;;4819734;29;20093;-71
2021/09/02 03:18:59;;;;;;;1.63;1.25;;;23.10;47.80;;;;;;4819739;29;20138;-70
2021/09/02 03:21:26;;;;;;;1.33;1.15;;;23.10;47.80;;;;;;4816822;29;20078;-69
2021/09/02 03:23:54;;;;;;;1.88;1.38;;;23.10;47.80;;;;;;4816491;29;20074;-70
2021/09/02 03:26:21;;;;;;;2.83;1.42;;;23.10;47.90;;;;;;4819670;29;20088;-69
2021/09/02 03:28:48;;;;;;;1.58;1.48;;;23.10;47.90;;;;;;4819728;29;20519;-70
2021/09/02 03:31:15;;;;;;;1.95;1.30;;;23.10;47.90;;;;;;4816353;29;20046;-68
2021/09/02 03:33:42;;;;;;;1.60;1.45;;;23.00;47.90;;;;;;4815916;29;20066;-70
2021/09/02 03:36:09;;;;;;;2.10;1.35;;;23.00;47.80;;;;;;4819175;29;20488;-70
2021/09/02 03:38:37;;;;;;;1.40;1.30;;;23.00;47.90;;;;;;4819904;29;20134;-70
2021/09/02 03:41:04;;;;;;;1.38;1.27;;;23.00;47.90;;;;;;4818376;29;20078;-69
2021/09/02 03:43:31;;;;;;;1.30;1.20;;;23.00;47.90;;;;;;4812219;29;20149;-70
2021/09/02 03:45:58;;;;;;;1.17;1.00;;;23.00;47.90;;;;;;4819417;29;20143;-70
2021/09/02 03:48:25;;;;;;;1.48;1.38;;;23.10;48.00;;;;;;4819102;29;20471;-69
2021/09/02 03:50:52;;;;;;;1.27;1.17;;;23.00;47.90;;;;;;4818665;29;20100;-70
2021/09/02 03:53:19;;;;;;;1.23;1.08;;;23.00;47.90;;;;;;4810182;29;20058;-70
2021/09/02 03:55:46;;;;;;;1.90;1.30;;;23.00;47.90;;;;;;4819041;29;20080;-70
2021/09/02 03:58:13;;;;;;;1.17;1.10;;;23.10;48.00;;;;;;4818454;29;20162;-70
2021/09/02 04:00:41;;;;;;;1.52;1.42;;;23.00;48.50;;;;;;4819193;29;20051;-70
2021/09/02 04:03:08;;;;;;;1.50;1.40;;;23.00;47.90;;;;;;4811413;29;20061;-69
2021/09/02 04:05:36;;;;;;;1.10;1.10;;;23.00;47.90;;;;;;4819160;29;20046;-70
2021/09/02 04:08:03;;;;;;;2.22;1.60;;;23.00;47.90;;;;;;4802470;29;20046;-70
2021/09/02 04:10:30;;;;;;;1.88;1.40;;;23.00;47.90;;;;;;4821151;29;20149;-69
2021/09/02 04:12:58;;;;;;;1.80;1.58;;;23.10;47.90;;;;;;4815825;29;20056;-70
2021/09/02 04:15:25;;;;;;;1.33;1.17;;;23.10;47.90;;;;;;4828543;29;20042;-70
2021/09/02 04:17:52;;;;;;;1.20;1.10;;;23.00;47.80;;;;;;4827474;29;20082;-70
2021/09/02 04:20:19;;;;;;;2.85;1.25;;;23.10;47.90;;;;;;4833874;29;20100;-70
2021/09/02 04:22:46;;;;;;;1.30;1.20;;;23.00;47.90;;;;;;4815239;29;20101;-70
2021/09/02 04:25:13;;;;;;;1.33;1.23;;;23.00;47.90;;;;;;4818807;29;20057;-70
2021/09/02 04:27:40;;;;;;;1.40;1.30;;;23.00;47.90;;;;;;4818617;29;20043;-70
2021/09/02 04:30:08;;;;;;;1.35;1.20;;;23.10;47.90;;;;;;4818741;29;20496;-70
2021/09/02 04:32:36;;;;;;;2.13;1.30;;;23.00;47.80;;;;;;4812133;29;20090;-69
2021/09/02 04:35:03;;;;;;;1.15;1.02;;;23.00;47.80;;;;;;4824001;29;20500;-70
2021/09/02 04:37:36;;;;;;;1.25;1.17;;;23.00;47.80;;;;;;4827109;29;20057;-70
2021/09/02 04:40:05;;;;;;;1.55;1.45;;;23.10;47.90;;;;;;4826285;29;20046;-70
2021/09/02 04:42:32;;;;;;;1.08;1.02;;;23.10;47.80;;;;;;4820240;29;20558;-69
2021/09/02 04:45:00;;;;;;;1.15;1.05;;;23.10;47.90;;;;;;4820857;29;20125;-70
2021/09/02 04:47:27;;;;;;;1.80;1.55;;;23.10;47.80;;;;;;4818560;29;20113;-70
2021/09/02 04:49:55;;;;;;;2.58;1.30;;;23.10;47.80;;;;;;4817444;29;20111;-70
2021/09/02 04:52:23;;;;;;;1.25;1.08;;;23.10;47.80;;;;;;4812813;29;20496;-69
2021/09/02 04:54:50;;;;;;;1.23;1.13;;;23.10;47.70;;;;;;4815788;29;20057;-70
2021/09/02 04:57:19;;;;;;;1.15;1.05;;;23.10;47.70;;;;;;4822107;29;20061;-70
2021/09/02 04:59:47;;;;;;;1.45;1.10;;;23.10;47.70;;;;;;4825672;29;20046;-70
2021/09/02 05:02:15;;;;;;;1.20;1.15;;;23.10;47.70;;;;;;4816766;29;20049;-68
2021/09/02 05:04:43;;;;;;;1.23;1.13;;;23.20;47.70;;;;;;4821988;29;20058;-70
2021/09/02 05:07:10;;;;;;;1.25;1.15;;;23.20;47.80;;;;;;4825387;29;20074;-69
2021/09/02 05:09:37;;;;;;;2.25;1.75;;;23.20;47.70;;;;;;4824057;29;20535;-70
2021/09/02 05:12:15;;;;;;;1.63;1.35;;;23.10;47.60;;;;;;4812834;29;20112;-69
2021/09/02 05:14:44;;;;;;;1.45;1.30;;;23.10;47.50;;;;;;4813777;29;20060;-69
2021/09/02 05:17:12;;;;;;;1.60;1.48;;;23.10;47.60;;;;;;4821632;29;20050;-69
2021/09/02 05:19:39;;;;;;;1.48;1.38;;;23.10;47.60;;;;;;4818815;29;20137;-69
2021/09/02 05:22:06;;;;;;;1.13;1.05;;;23.00;48.10;;;;;;4814230;29;20122;-69
2021/09/02 05:24:33;;;;;;;1.63;1.40;;;23.00;47.60;;;;;;4812709;29;20085;-67
2021/09/02 05:27:05;;;;;;;1.58;1.40;;;22.90;47.90;;;;;;4823458;29;20080;-69
2021/09/02 05:29:33;;;;;;;4.05;1.83;;;22.90;48.40;;;;;;4824739;29;20132;-68
2021/09/02 05:32:02;;;;;;;1.33;1.23;;;22.70;48.70;;;;;;4816002;29;20118;-70
2021/09/02 05:34:30;;;;;;;1.08;1.08;;;22.60;49.20;;;;;;4814462;29;20504;-67
2021/09/02 05:36:57;;;;;;;1.30;1.20;;;22.40;49.70;;;;;;4823356;29;20054;-69
2021/09/02 05:39:24;;;;;;;3.95;1.55;;;22.30;50.60;;;;;;4821776;29;20073;-66
2021/09/02 05:41:52;;;;;;;1.75;1.50;;;22.20;50.30;;;;;;4815663;29;20078;-67
2021/09/02 05:44:19;;;;;;;2.40;1.73;;;22.10;50.60;;;;;;4813969;29;20050;-69
2021/09/02 05:46:46;;;;;;;2.70;1.67;;;22.00;50.80;;;;;;4809406;29;20115;-69
2021/09/02 05:49:13;;;;;;;2.42;2.15;;;21.90;51.50;;;;;;4813876;29;20042;-70
2021/09/02 05:51:41;;;;;;;2.47;2.17;;;21.80;51.10;;;;;;4814597;29;20141;-68
2021/09/02 05:54:08;;;;;;;2.40;1.65;;;21.70;51.20;;;;;;4812048;29;20056;-68
2021/09/02 05:56:36;;;;;;;2.53;2.00;;;21.60;51.40;;;;;;4811659;29;20046;-68
2021/09/02 05:59:03;;;;;;;6.43;2.78;;;21.50;51.50;;;;;;4812079;29;20144;-68
2021/09/02 06:01:30;;;;;;;5.95;1.90;;;21.40;51.90;;;;;;4814639;29;20054;-67
2021/09/02 06:03:57;;;;;;;2.65;2.00;;;21.40;52.50;;;;;;4824487;29;20039;-68
2021/09/02 06:06:25;;;;;;;2.58;2.30;;;21.30;52.80;;;;;;4815416;29;20058;-69
2021/09/02 06:08:52;;;;;;;3.50;2.92;;;21.20;52.90;;;;;;4813715;29;20058;-69
2021/09/02 06:11:19;;;;;;;3.65;2.60;;;21.20;53.30;;;;;;4810198;29;20057;-73
2021/09/02 06:13:46;;;;;;;2.58;2.08;;;21.20;53.50;;;;;;4805344;29;20054;-73
2021/09/02 06:16:13;;;;;;;6.60;2.40;;;21.10;53.40;;;;;;4811361;29;20103;-72
2021/09/02 06:18:40;;;;;;;2.42;2.10;;;21.00;53.60;;;;;;4814709;29;20148;-72
2021/09/02 06:21:07;;;;;;;2.33;2.08;;;21.00;54.00;;;;;;4811805;29;20294;-69
2021/09/02 06:23:35;;;;;;;3.30;2.58;;;21.00;54.10;;;;;;4803941;29;20145;-67
2021/09/02 06:26:02;;;;;;;4.63;3.00;;;20.90;54.00;;;;;;4812741;29;20126;-67
2021/09/02 06:28:32;;;;;;;3.30;2.65;;;21.00;54.50;;;;;;4811345;29;20062;-72
2021/09/02 06:31:00;;;;;;;3.10;2.17;;;20.90;54.80;;;;;;4799172;29;20054;-68
2021/09/02 06:33:27;;;;;;;4.57;2.30;;;20.90;54.70;;;;;;4804484;29;20050;-71
2021/09/02 06:35:55;;;;;;;3.28;2.55;;;20.90;54.90;;;;;;4815230;29;20045;-70
2021/09/02 06:38:23;;;;;;;3.70;3.03;;;20.80;55.10;;;;;;4818944;29;20614;-70
2021/09/02 06:40:50;;;;;;;4.43;3.08;;;20.80;55.00;;;;;;4815371;29;20050;-69
2021/09/02 06:43:17;;;;;;;5.65;3.17;;;20.80;55.10;;;;;;4809733;29;20082;-72
2021/09/02 06:45:44;;;;;;;2.60;2.40;;;20.80;55.40;;;;;;4812025;29;20097;-67
2021/09/02 06:48:12;;;;;;;3.28;2.70;;;20.80;55.40;;;;;;4811441;29;20058;-69
2021/09/02 06:50:39;;;;;;;4.53;2.75;;;20.80;55.30;;;;;;4813980;29;20420;-72
2021/09/02 06:53:07;;;;;;;4.45;3.20;;;20.80;55.60;;;;;;4806376;29;20423;-71
2021/09/02 06:55:34;;;;;;;4.90;2.92;;;20.80;55.70;;;;;;4818539;29;20085;-66
2021/09/02 06:58:01;;;;;;;5.25;3.75;;;20.80;55.60;;;;;;4813033;29;20054;-69
2021/09/02 07:00:28;;;;;;;3.45;3.13;;;20.80;55.70;;;;;;4820124;29;20513;-69
2021/09/02 07:02:55;;;;;;;7.20;3.92;;;20.80;56.00;;;;;;4804076;29;20050;-68
2021/09/02 07:05:23;;;;;;;5.65;2.78;;;20.80;56.00;;;;;;4814503;29;20060;-71
2021/09/02 07:07:52;;;;;;;5.18;3.25;;;20.80;55.80;;;;;;4818687;29;20108;-68
2021/09/02 07:10:37;;;;;;;6.40;3.70;;;20.80;56.20;;;;;;4816807;29;20050;-65
2021/09/02 07:13:04;;;;;;;6.57;3.30;;;20.80;56.40;;;;;;4808932;29;20094;-66
2021/09/02 07:15:32;;;;;;;4.72;2.90;;;20.80;56.20;;;;;;4817954;29;20078;-65
2021/09/02 07:17:59;;;;;;;4.47;3.55;;;20.80;56.30;;;;;;4817477;29;20051;-66
2021/09/02 07:20:26;;;;;;;3.70;3.33;;;20.80;56.40;;;;;;4819149;29;20153;-66
2021/09/02 07:22:53;;;;;;;5.50;2.90;;;20.80;56.30;;;;;;4809386;29;20058;-68
2021/09/02 07:25:21;;;;;;;4.15;2.95;;;20.90;56.30;;;;;;4810467;29;20084;-67
2021/09/02 07:27:48;;;;;;;5.53;3.45;;;20.80;56.60;;;;;;4815817;29;20851;-68
2021/09/02 07:30:15;;;;;;;4.38;3.22;;;20.90;56.60;;;;;;4815776;29;20141;-67
2021/09/02 07:32:42;;;;;;;3.95;2.92;;;20.90;56.40;;;;;;4812111;29;20492;-71
2021/09/02 07:35:10;;;;;;;3.80;3.10;;;20.90;56.60;;;;;;4813484;29;20050;-68
2021/09/02 07:37:37;;;;;;;6.05;3.45;;;20.90;56.80;;;;;;4814303;29;20058;-69
2021/09/02 07:40:05;;;;;;;7.60;3.40;;;20.90;56.70;;;;;;4816221;29;20133;-69
2021/09/02 07:42:32;;;;;;;5.28;3.90;;;20.90;56.70;;;;;;4806781;29;20111;-66
2021/09/02 07:45:03;;;;;;;;;;;20.90;56.90;;;;;;4814507;29;20504;-66
2021/09/02 07:47:33;;;;;;;5.25;3.22;;;20.90;57.00;;;;;;4817064;29;19932;-68
2021/09/02 07:50:02;;;;;;;6.03;3.30;;;20.90;56.70;;;;;;4821111;29;20053;-66
2021/09/02 07:52:30;;;;;;;5.53;3.03;;;20.90;56.70;;;;;;4808960;29;20050;-67
2021/09/02 07:54:57;;;;;;;5.60;4.03;;;20.90;56.70;;;;;;4814289;29;20302;-67
2021/09/02 07:57:24;;;;;;;4.10;3.45;;;20.90;56.50;;;;;;4814797;29;20074;-68
2021/09/02 07:59:52;;;;;;;4.20;2.97;;;20.90;56.50;;;;;;4818288;29;20078;-68
2021/09/02 08:02:19;;;;;;;4.20;3.20;;;20.90;56.60;;;;;;4812844;29;20480;-67
2021/09/02 08:04:47;;;;;;;3.75;2.75;;;20.90;56.60;;;;;;4813954;29;20059;-66
2021/09/02 08:07:14;;;;;;;4.45;3.28;;;20.90;56.40;;;;;;4815821;29;20133;-66
2021/09/02 08:09:41;;;;;;;4.07;3.30;;;20.90;56.60;;;;;;4819914;29;20080;-67
2021/09/02 08:12:09;;;;;;;5.15;3.30;;;20.90;56.70;;;;;;4807333;29;20065;-70
2021/09/02 08:14:36;;;;;;;4.10;3.35;;;20.90;56.60;;;;;;4810934;29;20106;-70
2021/09/02 08:17:04;;;;;;;3.92;3.40;;;20.90;56.60;;;;;;4832093;29;20129;-71
2021/09/02 08:19:31;;;;;;;7.20;4.10;;;21.00;56.80;;;;;;4819156;29;20062;-74
2021/09/02 08:21:58;;;;;;;5.10;3.35;;;21.00;56.80;;;;;;4812655;29;20066;-71
2021/09/02 08:24:25;;;;;;;6.30;3.47;;;21.00;56.60;;;;;;4810547;29;20065;-70
2021/09/02 08:26:53;;;;;;;3.92;3.00;;;21.00;56.50;;;;;;4816592;29;20574;-69
2021/09/02 08:29:20;;;;;;;4.82;3.25;;;21.00;56.50;;;;;;4816722;29;20089;-71
2021/09/02 08:31:47;;;;;;;7.18;3.40;;;21.00;56.60;;;;;;4815628;29;20145;-69
2021/09/02 08:34:14;;;;;;;4.35;2.90;;;21.00;56.50;;;;;;4809161;29;20133;-68
2021/09/02 08:36:41;;;;;;;3.40;2.95;;;21.00;56.50;;;;;;4815016;29;20107;-69
2021/09/02 08:39:08;;;;;;;4.10;3.03;;;21.00;56.60;;;;;;4816812;29;20133;-69
2021/09/02 08:41:35;;;;;;;3.40;2.58;;;21.00;56.50;;;;;;4811530;29;20504;-72
2021/09/02 08:44:03;;;;;;;3.80;3.40;;;21.10;56.60;;;;;;4809995;29;20572;-72
2021/09/02 08:46:33;;;;;;;4.63;3.20;;;21.10;56.60;;;;;;4819992;29;20062;-72
2021/09/02 08:49:02;;;;;;;4.53;3.25;;;21.00;56.50;;;;;;4818475;29;20524;-71
2021/09/02 08:51:29;;;;;;;4.72;3.10;;;21.10;56.50;;;;;;4810999;29;20089;-71
2021/09/02 08:53:57;;;;;;;3.90;2.85;;;21.10;56.50;;;;;;4808715;29;20093;-72
2021/09/02 08:56:24;;;;;;;3.63;3.10;;;21.10;56.50;;;;;;4814810;29;20057;-69
2021/09/02 08:58:51;;;;;;;4.70;2.53;;;21.10;56.80;;;;;;4816573;29;20062;-71
2021/09/02 09:01:18;;;;;;;4.03;2.65;;;21.10;56.90;;;;;;4812530;29;20491;-73
2021/09/02 09:03:50;;;;;;;4.53;3.28;;;21.20;57.00;;;;;;4805046;29;20070;-71
2021/09/02 09:06:27;;;;;;;5.47;3.03;;;21.20;56.90;;;;;;4816771;29;20054;-72
2021/09/02 09:08:55;;;;;;;4.43;2.85;;;21.30;56.80;;;;;;4814208;29;20116;-72
2021/09/02 09:11:28;;;;;;;3.65;2.97;;;21.30;56.80;;;;;;4812248;29;20898;-68
2021/09/02 09:14:12;;;;;;;6.30;3.50;;;21.30;56.80;;;;;;4810603;29;20113;-67
2021/09/02 09:16:51;;;;;;;4.05;3.58;;;21.40;56.90;;;;;;4815281;29;20058;-69
2021/09/02 09:19:49;;;;;;;4.55;2.53;;;21.40;56.80;;;;;;4816480;29;20088;-72
2021/09/02 09:22:18;;;;;;;5.32;2.95;;;21.50;57.00;;;;;;4808053;29;20505;-71
2021/09/02 09:24:49;;;;;;;3.30;2.65;;;21.50;56.90;;;;;;4811914;29;20089;-70
2021/09/02 09:27:19;;;;;;;3.85;2.90;;;21.60;56.60;;;;;;4817211;29;20169;-67
2021/09/02 09:30:09;;;;;;;2.50;2.25;;;21.60;56.50;;;;;;4820170;29;20516;-72
2021/09/02 09:32:47;;;;;;;4.05;2.58;;;21.60;56.30;;;;;;4805036;29;20058;-73
2021/09/02 09:35:23;;;;;;;2.85;2.30;;;21.70;56.20;;;;;;4812749;29;20050;-70
2021/09/02 09:38:06;;;;;;;4.75;2.38;;;21.80;56.10;;;;;;4813558;29;20078;-69
2021/09/02 09:40:36;;;;;;;3.17;2.72;;;21.80;55.70;;;;;;4811853;29;20103;-72
2021/09/02 09:43:10;;;;;;;3.90;2.28;;;21.90;55.50;;;;;;4803368;29;20083;-72
2021/09/02 09:45:45;;;;;;;4.80;2.45;;;21.90;55.20;;;;;;4814694;29;20054;-75
2021/09/02 09:48:34;;;;;;;3.83;2.60;;;21.90;55.10;;;;;;4814438;29;20082;-71
2021/09/02 09:51:21;;;;;;;2.70;2.40;;;22.00;54.90;;;;;;4815869;29;20149;-73
2021/09/02 09:53:53;;;;;;;2.78;2.10;;;22.00;54.60;;;;;;4804555;29;20439;-72
2021/09/02 09:56:22;;;;;;;4.13;2.33;;;22.00;54.60;;;;;;4820313;29;20521;-71
2021/09/02 09:58:55;;;;;;;4.27;2.93;;;22.00;54.60;;;;;;4815318;29;20530;-71
2021/09/02 10:01:26;;;;;;;3.65;2.00;;;22.00;55.00;;;;;;4816164;29;20385;-71
2021/09/02 10:03:54;;;;;;;2.58;2.28;;;22.00;54.40;;;;;;4809327;29;20080;-70
2021/09/02 10:06:24;;;;;;;3.00;2.35;;;22.00;54.30;;;;;;4816854;29;20320;-71
2021/09/02 10:08:51;;;;;;;4.70;2.30;;;22.00;54.30;;;;;;4819712;29;20182;-73
2021/09/02 10:11:20;;;;;;;2.50;2.00;;;22.00;54.30;;;;;;4815582;29;20053;-73
2021/09/02 10:13:47;;;;;;;3.50;2.22;;;22.10;54.30;;;;;;4812056;29;20054;-72
2021/09/02 10:16:15;;;;;;;4.68;2.60;;;22.10;54.20;;;;;;4836114;29;20058;-72
2021/09/02 10:18:46;;;;;;;2.58;2.38;;;22.10;54.10;;;;;;4821120;29;20415;-73
2021/09/02 10:21:15;;;;;;;3.15;2.00;;;22.10;53.70;;;;;;4817285;29;20076;-72
2021/09/02 10:23:42;;;;;;;3.10;2.30;;;22.10;53.60;;;;;;4810272;29;20047;-72
2021/09/02 10:26:33;;;;;;;4.07;2.08;;;22.10;54.10;;;;;;4821791;29;20053;-71
2021/09/02 10:29:21;;;;;;;4.43;2.20;;;22.10;54.60;;;;;;4816359;29;20200;-70
2021/09/02 10:31:48;;;;;;;2.30;2.10;;;22.10;54.00;;;;;;4813833;29;20058;-73
2021/09/02 10:34:28;;;;;;;2.28;2.13;;;22.10;54.00;;;;;;4811657;29;20141;-71
2021/09/02 10:36:55;;;;;;;4.63;2.30;;;22.10;54.10;;;;;;4812940;29;20058;-71
2021/09/02 10:39:41;;;;;;;3.13;2.47;;;22.10;54.00;;;;;;4819243;29;20050;-71
2021/09/02 10:42:08;;;;;;;4.93;1.92;;;22.20;54.20;;;;;;4813545;29;20137;-71
2021/09/02 10:44:50;;;;;;;2.45;2.20;;;22.20;54.40;;;;;;4814505;29;20066;-70
2021/09/02 10:47:18;;;;;;;2.13;1.90;;;22.20;54.30;;;;;;4823522;29;20133;-69
2021/09/02 10:50:01;;;;;;;2.35;2.15;;;22.20;54.40;;;;;;4811839;29;20592;-70
2021/09/02 10:52:29;;;;;;;3.05;1.77;;;22.20;54.30;;;;;;4809547;29;20404;-72
2021/09/02 10:55:32;;;;;;;1.95;1.75;;;22.20;54.10;;;;;;4819919;29;20085;-72
2021/09/02 10:58:02;;;;;;;3.58;2.17;;;22.20;54.10;;;;;;4819784;29;20049;-75
2021/09/02 11:00:37;;;;;;;3.25;2.42;;;22.20;53.90;;;;;;4820033;29;20133;-73
2021/09/02 11:03:25;;;;;;;8.32;2.45;;;22.20;53.90;;;;;;4800223;29;20069;-70
2021/09/02 11:05:56;;;;;;;3.60;2.20;;;22.30;53.80;;;;;;4817479;29;20060;-74
2021/09/02 11:08:35;;;;;;;2.88;1.63;;;22.20;53.80;;;;;;4816260;29;20153;-73
2021/09/02 11:11:12;;;;;;;2.72;2.03;;;22.20;53.80;;;;;;4829209;29;20058;-69
2021/09/02 11:13:43;;;;;;;3.10;2.30;;;22.20;53.80;;;;;;4806904;29;20140;-69
2021/09/02 11:16:14;;;;;;;2.45;2.25;;;22.20;53.90;;;;;;4820269;29;20046;-69
2021/09/02 11:18:42;;;;;;;;;;;22.20;54.10;;;;;;4826458;29;20085;-69
2021/09/02 11:21:18;;;;;;;2.50;2.30;;;22.20;54.20;;;;;;4823514;29;19924;-73
2021/09/02 11:23:48;;;;;;;5.32;2.55;;;22.20;54.00;;;;;;4807870;29;20089;-69
2021/09/02 11:26:33;;;;;;;2.28;2.05;;;22.20;53.80;;;;;;4816281;29;20058;-70
2021/09/02 11:29:02;;;;;;;2.55;2.05;;;22.20;53.80;;;;;;4815796;29;20130;-69
2021/09/02 11:31:30;;;;;;;5.78;2.22;;;22.20;53.40;;;;;;4808386;29;20062;-71
2021/09/02 11:33:59;;;;;;;4.03;2.15;;;22.20;53.20;;;;;;4808516;29;20423;-70
2021/09/02 11:36:26;;;;;;;3.30;2.15;;;22.20;53.10;;;;;;4820472;29;20063;-73
2021/09/02 11:39:06;;;;;;;2.50;2.20;;;22.20;53.10;;;;;;4820614;29;20149;-70
2021/09/02 11:41:34;;;;;;;2.75;2.55;;;22.20;53.20;;;;;;4817488;29;20111;-69
2021/09/02 11:44:02;;;;;;;3.00;2.20;;;22.20;53.20;;;;;;4819320;29;20058;-73
2021/09/02 11:46:29;;;;;;;3.22;2.55;;;22.20;53.20;;;;;;4819213;29;20133;-73
2021/09/02 11:48:58;;;;;;;2.28;2.05;;;22.20;53.00;;;;;;4820483;29;20078;-74
2021/09/02 11:51:28;;;;;;;2.85;2.50;;;22.20;52.90;;;;;;4814689;29;20069;-66
2021/09/02 11:54:10;;;;;;;2.50;2.30;;;22.20;52.80;;;;;;4801089;29;20149;-71
2021/09/02 11:56:39;;;;;;;2.88;2.35;;;22.30;52.90;;;;;;4815518;29;20046;-70
2021/09/02 11:59:10;;;;;;;2.80;2.53;;;22.30;53.00;;;;;;4818175;29;20050;-74
2021/09/02 12:01:52;;;;;;;2.97;2.67;;;22.30;52.80;;;;;;4809715;29;20162;-74
2021/09/02 12:04:29;;;;;;;2.33;2.10;;;22.30;52.70;;;;;;4808605;29;20110;-71
2021/09/02 12:07:02;;;;;;;3.08;2.45;;;22.30;52.60;;;;;;4814659;29;20419;-72
2021/09/02 12:09:34;;;;;;;3.00;2.17;;;22.20;52.50;;;;;;4813072;29;20527;-70
2021/09/02 12:12:02;;;;;;;4.28;2.63;;;22.20;52.40;;;;;;4806289;29;20490;-71
2021/09/02 12:14:31;;;;;;;3.78;2.75;;;22.20;52.50;;;;;;4813880;29;20077;-72
2021/09/02 12:17:09;;;;;;;3.55;2.70;;;22.20;52.40;;;;;;4816283;29;20050;-75
2021/09/02 12:19:57;;;;;;;2.60;1.95;;;22.20;52.40;;;;;;4814932;29;20525;-72
2021/09/02 12:22:37;;;;;;;3.17;2.65;;;22.20;52.30;;;;;;4803390;29;20058;-74
2021/09/02 12:25:13;;;;;;;2.92;2.60;;;22.20;52.20;;;;;;4816057;29;20052;-73
2021/09/02 12:27:51;;;;;;;3.17;2.40;;;22.30;52.20;;;;;;4814946;29;20066;-71
2021/09/02 12:30:43;;;;;;;3.05;2.75;;;22.30;52.30;;;;;;4824330;29;20081;-70
2021/09/02 12:33:14;;;;;;;2.33;2.10;;;22.30;52.20;;;;;;4807071;29;20417;-71
2021/09/02 12:35:44;;;;;;;4.40;2.80;;;22.30;51.90;;;;;;4821628;29;20576;-73
2021/09/02 12:38:35;;;;;;;7.57;3.27;;;22.40;51.80;;;;;;4818585;29;20480;-75
2021/09/02 12:41:17;;;;;;;4.00;2.83;;;22.40;51.50;;;;;;4820600;29;20293;-71
2021/09/02 12:44:10;;;;;;;3.05;2.35;;;22.40;51.50;;;;;;4809256;29;20058;-72
2021/09/02 12:46:57;;;;;;;3.72;2.47;;;22.40;51.30;;;;;;4818955;29;20081;-73
2021/09/02 12:49:30;;;;;;;3.00;2.70;;;22.40;51.10;;;;;;4823917;29;20077;-70
2021/09/02 12:51:59;;;;;;;4.93;2.80;;;22.30;51.00;;;;;;4806295;29;20105;-68
2021/09/02 12:54:26;;;;;;;3.80;2.40;;;22.30;51.00;;;;;;4817192;29;20046;-73
2021/09/02 12:56:54;;;;;;;2.58;2.35;;;22.30;51.00;;;;;;4834313;29;20054;-73
2021/09/02 12:59:21;;;;;;;3.08;2.40;;;22.30;50.90;;;;;;4825532;29;20137;-72
2021/09/02 13:01:48;;;;;;;2.85;2.50;;;22.30;50.90;;;;;;4813383;29;20059;-69